createdAt,value
2023-05-12T00:04:01.751Z,3.58
2023-05-12T00:14:03.979Z,4.60
2023-05-12T00:24:06.476Z,5.90
2023-05-12T00:34:18.586Z,6.40
2023-05-12T00:44:20.535Z,4.25
2023-05-12T00:54:23.073Z,5.03
2023-05-12T01:04:25.122Z,7.10
2023-05-12T01:14:27.360Z,5.28
2023-05-12T01:24:32.698Z,5.53
2023-05-12T01:34:36.279Z,6.65
2023-05-12T01:44:50.484Z,5.50
2023-05-12T01:54:52.426Z,5.22
2023-05-12T02:04:54.481Z,4.15
2023-05-12T02:15:11.054Z,3.83
2023-05-12T02:25:13.688Z,6.32
2023-05-12T02:35:15.670Z,4.57
2023-05-12T02:45:24.500Z,6.03
2023-05-12T02:55:26.572Z,4.85
2023-05-12T03:05:28.612Z,5.38
2023-05-12T03:15:35.162Z,4.75
2023-05-12T03:25:37.133Z,4.45
2023-05-12T03:35:38.999Z,4.13
2023-05-12T03:45:41.025Z,5.50
2023-05-12T03:55:55.999Z,6.25
2023-05-12T04:06:03.249Z,7.78
2023-05-12T04:16:05.708Z,6.20
2023-05-12T04:26:34.688Z,4.30
2023-05-12T04:36:45.604Z,4.28
2023-05-12T04:46:56.648Z,3.95
2023-05-12T04:56:58.794Z,5.40
2023-05-12T05:07:00.866Z,4.80
2023-05-12T05:17:04.104Z,5.72
2023-05-12T05:27:06.401Z,4.22
2023-05-12T05:37:08.821Z,6.38
2023-05-12T05:47:11.902Z,4.57
2023-05-12T05:57:18.106Z,9.02
2023-05-12T06:07:21.988Z,6.07
2023-05-12T06:17:24.211Z,5.28
2023-05-12T06:27:26.199Z,5.93
2023-05-12T06:37:30.203Z,7.00
2023-05-12T06:47:40.611Z,5.13
2023-05-12T06:57:42.752Z,5.95
2023-05-12T07:07:46.886Z,6.32
2023-05-12T07:17:49.947Z,3.90
2023-05-12T07:27:52.084Z,2.92
2023-05-12T07:37:56.019Z,5.13
2023-05-12T07:47:58.021Z,5.75
2023-05-12T07:58:05.137Z,6.57
2023-05-12T08:08:07.406Z,5.50
2023-05-12T08:18:11.558Z,3.85
2023-05-12T08:28:32.832Z,12.02
2023-05-12T08:38:59.462Z,6.25
2023-05-12T08:49:17.371Z,5.30
2023-05-12T08:59:25.775Z,6.53
2023-05-12T09:09:29.906Z,10.98
2023-05-12T09:19:32.811Z,5.00
2023-05-12T09:29:45.160Z,5.93
2023-05-12T09:40:00.511Z,3.17
2023-05-12T09:50:04.160Z,5.90
2023-05-12T10:00:16.878Z,5.13
2023-05-12T10:10:33.333Z,7.28
2023-05-12T10:20:42.630Z,4.72
2023-05-12T10:31:08.000Z,7.82
2023-05-12T10:41:10.062Z,10.05
2023-05-12T10:51:12.029Z,6.50
2023-05-12T11:01:25.457Z,4.90
2023-05-12T11:11:29.402Z,5.88
2023-05-12T11:21:35.493Z,6.82
2023-05-12T11:31:38.643Z,17.08
2023-05-12T11:41:42.657Z,5.63
2023-05-12T11:51:44.689Z,6.95
2023-05-12T12:01:51.040Z,2.35
2023-05-12T12:11:53.122Z,8.85
2023-05-12T12:22:24.273Z,6.40
2023-05-12T12:32:26.385Z,3.13
2023-05-12T12:42:28.436Z,1.70
2023-05-12T12:52:30.714Z,2.38
2023-05-12T13:02:33.811Z,2.20
2023-05-12T13:12:36.296Z,2.70
2023-05-12T13:22:42.058Z,1.33
2023-05-12T13:32:47.087Z,1.38
2023-05-12T13:42:51.123Z,2.15
2023-05-12T13:52:53.211Z,1.90
2023-05-12T14:02:55.273Z,3.63
2023-05-12T14:12:58.276Z,1.40
2023-05-12T14:23:03.926Z,5.20
2023-05-12T14:33:15.958Z,4.10
2023-05-12T14:43:18.121Z,4.55
2023-05-12T14:53:20.699Z,1.95
2023-05-12T15:03:23.017Z,2.33
2023-05-12T15:13:49.973Z,3.45
2023-05-12T15:23:53.984Z,1.30
2023-05-12T15:33:57.052Z,2.17
2023-05-12T15:44:01.133Z,2.00
2023-05-12T15:54:15.210Z,2.22
2023-05-12T16:04:17.212Z,4.25
2023-05-12T16:14:19.603Z,2.50
2023-05-12T16:24:22.141Z,4.97
2023-05-12T16:34:25.920Z,2.55
2023-05-12T16:44:29.982Z,7.43
2023-05-12T16:55:03.021Z,2.22
2023-05-12T17:05:05.716Z,3.80
2023-05-12T17:15:09.736Z,1.83
2023-05-12T17:25:12.142Z,2.45
2023-05-12T17:35:20.395Z,1.92
2023-05-12T17:45:37.959Z,4.20
2023-05-12T17:55:39.870Z,1.75
2023-05-12T18:05:58.051Z,1.65
2023-05-12T18:16:00.157Z,2.08
2023-05-12T18:26:06.088Z,3.22
2023-05-12T18:36:14.016Z,12.98
2023-05-12T18:46:17.035Z,33.05
2023-05-12T18:56:24.943Z,13.85
2023-05-12T19:06:30.459Z,11.18
2023-05-12T19:16:35.177Z,4.75
2023-05-12T19:26:37.502Z,5.75
2023-05-12T19:36:39.653Z,14.07
2023-05-12T19:46:41.652Z,46.45
2023-05-12T19:56:43.598Z,60.83
2023-05-12T20:06:45.743Z,37.95
2023-05-12T20:16:47.867Z,31.23
2023-05-12T20:26:49.901Z,14.63
2023-05-12T20:37:02.208Z,19.67
2023-05-12T20:48:19.026Z,39.75
2023-05-12T20:58:10.081Z,31.88
2023-05-12T21:08:07.118Z,20.77
2023-05-12T21:18:11.435Z,20.85
2023-05-12T21:28:22.515Z,13.27
2023-05-12T21:38:27.355Z,17.00
2023-05-12T21:48:29.398Z,16.30
2023-05-12T21:58:33.310Z,12.40
2023-05-12T22:08:41.055Z,13.15
2023-05-12T22:18:43.884Z,25.10
2023-05-12T22:28:46.186Z,17.35
2023-05-12T22:38:48.047Z,13.85
2023-05-12T22:48:52.840Z,10.20
2023-05-12T22:58:57.710Z,9.10
2023-05-12T23:08:59.594Z,11.50
2023-05-12T23:19:01.634Z,8.15
2023-05-12T23:29:04.383Z,11.52
2023-05-12T23:39:09.977Z,10.95
2023-05-12T23:49:12.860Z,7.65
2023-05-12T23:59:16.828Z,10.70
